createdAt,value
2023-04-13T00:00:36.878Z,8.64
2023-04-13T00:03:04.532Z,8.36
2023-04-13T00:05:31.796Z,8.58
2023-04-13T00:08:03.204Z,8.36
2023-04-13T00:10:31.653Z,8.32
2023-04-13T00:13:01.613Z,8.32
2023-04-13T00:15:28.289Z,8.17
2023-04-13T00:17:54.904Z,8.22
2023-04-13T00:20:21.491Z,8.22
2023-04-13T00:22:49.066Z,8.04
2023-04-13T00:25:16.662Z,8.01
2023-04-13T00:27:44.281Z,8.23
2023-04-13T00:30:15.888Z,7.79
2023-04-13T00:32:43.935Z,7.88
2023-04-13T00:35:12.230Z,8.09
2023-04-13T00:37:39.224Z,7.85
2023-04-13T00:40:08.490Z,7.91
2023-04-13T00:42:35.480Z,7.87
2023-04-13T00:45:02.360Z,7.86
2023-04-13T00:47:32.435Z,7.98
2023-04-13T00:52:43.122Z,7.78
2023-04-13T00:55:09.931Z,7.79
2023-04-13T00:57:41.046Z,7.72
2023-04-13T01:00:12.937Z,7.67
2023-04-13T01:02:42.913Z,7.31
2023-04-13T01:05:12.881Z,7.59
2023-04-13T01:08:02.103Z,7.34
2023-04-13T01:10:36.944Z,7.51
2023-04-13T01:13:12.299Z,7.29
2023-04-13T01:15:46.480Z,7.49
2023-04-13T01:18:15.724Z,7.37
2023-04-13T01:20:45.496Z,7.37
2023-04-13T01:23:35.452Z,7.28
2023-04-13T01:26:08.840Z,7.31
2023-04-13T01:28:38.764Z,7.44
2023-04-13T01:31:11.917Z,7.38
2023-04-13T01:33:41.424Z,7.40
2023-04-13T01:36:10.628Z,7.16
2023-04-13T01:38:38.056Z,7.35
2023-04-13T01:41:04.926Z,7.29
2023-04-13T01:43:32.478Z,7.31
2023-04-13T01:46:04.264Z,7.03
2023-04-13T01:48:37.533Z,7.32
2023-04-13T01:51:11.290Z,7.28
2023-04-13T01:53:42.684Z,7.33
2023-04-13T01:56:09.691Z,6.86
2023-04-13T01:58:36.721Z,7.02
2023-04-13T02:01:07.945Z,7.02
2023-04-13T02:03:36.299Z,7.10
2023-04-13T02:06:03.289Z,7.05
2023-04-13T02:08:32.915Z,6.96
2023-04-13T02:11:01.085Z,7.18
2023-04-13T02:13:27.690Z,7.16
2023-04-13T02:15:54.248Z,7.13
2023-04-13T02:18:21.107Z,7.01
2023-04-13T02:20:47.698Z,6.92
2023-04-13T02:23:15.227Z,6.90
2023-04-13T02:25:47.106Z,6.98
2023-04-13T02:28:16.068Z,6.99
2023-04-13T02:30:42.907Z,6.71
2023-04-13T02:33:09.722Z,7.04
2023-04-13T02:35:39.120Z,6.93
2023-04-13T02:38:06.888Z,7.11
2023-04-13T02:40:33.515Z,6.98
2023-04-13T02:43:00.274Z,7.02
2023-04-13T02:45:27.340Z,6.97
2023-04-13T02:47:54.062Z,7.06
2023-04-13T02:50:20.837Z,7.10
2023-04-13T02:52:47.384Z,6.70
2023-04-13T02:55:13.978Z,7.05
2023-04-13T02:57:42.472Z,7.02
2023-04-13T03:00:10.761Z,7.01
2023-04-13T03:02:42.470Z,6.70
2023-04-13T03:05:09.581Z,7.00
2023-04-13T03:07:36.672Z,6.68
2023-04-13T03:10:09.141Z,6.93
2023-04-13T03:12:35.807Z,6.92
2023-04-13T03:15:05.006Z,7.02
2023-04-13T03:17:31.662Z,6.98
2023-04-13T03:19:58.460Z,6.63
2023-04-13T03:22:26.162Z,6.87
2023-04-13T03:24:52.868Z,6.81
2023-04-13T03:27:21.635Z,6.88
2023-04-13T03:29:48.417Z,6.83
2023-04-13T03:32:15.031Z,6.80
2023-04-13T03:34:44.540Z,6.71
2023-04-13T03:37:11.928Z,6.62
2023-04-13T03:39:41.581Z,6.80
2023-04-13T03:42:08.271Z,6.93
2023-04-13T03:44:35.029Z,6.53
2023-04-13T03:47:01.692Z,6.78
2023-04-13T03:49:28.520Z,6.55
2023-04-13T03:51:55.033Z,6.70
2023-04-13T03:54:21.613Z,6.79
2023-04-13T03:56:48.286Z,6.71
2023-04-13T03:59:14.927Z,6.71
2023-04-13T04:01:41.563Z,6.52
2023-04-13T04:04:08.388Z,6.67
2023-04-13T04:06:35.372Z,6.32
2023-04-13T04:09:02.123Z,6.76
2023-04-13T04:11:28.742Z,6.78
2023-04-13T04:13:55.426Z,6.50
2023-04-13T04:16:22.044Z,6.78
2023-04-13T04:18:48.649Z,6.81
2023-04-13T04:21:15.735Z,6.65
2023-04-13T04:23:42.350Z,6.41
2023-04-13T04:26:08.977Z,6.43
2023-04-13T04:28:39.060Z,6.69
2023-04-13T04:31:12.246Z,5.57
2023-04-13T04:33:39.101Z,6.38
2023-04-13T04:36:07.533Z,6.57
2023-04-13T04:38:34.137Z,6.62
2023-04-13T04:41:02.363Z,6.89
2023-04-13T04:43:30.504Z,6.83
2023-04-13T04:45:58.232Z,6.33
2023-04-13T04:48:27.143Z,6.85
2023-04-13T04:50:56.205Z,6.66
2023-04-13T04:53:23.089Z,6.78
2023-04-13T04:55:50.002Z,5.84
2023-04-13T04:58:16.887Z,6.97
2023-04-13T05:00:43.460Z,7.19
2023-04-13T05:03:10.229Z,7.23
2023-04-13T05:05:36.979Z,7.07
2023-04-13T05:08:03.688Z,6.94
2023-04-13T05:10:30.417Z,6.88
2023-04-13T05:12:57.032Z,6.90
2023-04-13T05:15:23.855Z,7.17
2023-04-13T05:17:51.265Z,7.36
2023-04-13T05:20:19.410Z,7.38
2023-04-13T05:22:47.017Z,7.62
2023-04-13T05:25:13.695Z,7.94
2023-04-13T05:27:40.310Z,8.04
2023-04-13T05:30:08.960Z,8.11
2023-04-13T05:32:36.117Z,7.71
2023-04-13T05:35:04.554Z,7.80
2023-04-13T05:37:31.528Z,7.69
2023-04-13T05:39:58.725Z,7.72
2023-04-13T05:42:25.382Z,7.89
2023-04-13T05:44:52.471Z,7.61
2023-04-13T05:47:23.030Z,7.95
2023-04-13T05:49:49.698Z,8.10
2023-04-13T05:52:16.475Z,8.15
2023-04-13T05:54:43.204Z,8.18
2023-04-13T05:57:09.931Z,7.93
2023-04-13T05:59:37.129Z,7.95
2023-04-13T06:02:03.771Z,8.35
2023-04-13T06:04:31.642Z,8.20
2023-04-13T06:06:59.404Z,8.40
2023-04-13T06:09:26.094Z,8.65
2023-04-13T06:11:53.261Z,9.33
2023-04-13T06:14:21.079Z,9.63
2023-04-13T06:16:47.769Z,9.33
2023-04-13T06:19:14.416Z,9.30
2023-04-13T06:21:40.965Z,9.50
2023-04-13T06:24:07.867Z,9.54
2023-04-13T06:26:34.557Z,9.58
2023-04-13T06:29:02.773Z,9.04
2023-04-13T06:31:29.708Z,8.69
2023-04-13T06:33:57.861Z,9.34
2023-04-13T06:36:24.522Z,9.48
2023-04-13T06:38:51.232Z,9.31
2023-04-13T06:41:17.827Z,9.59
2023-04-13T06:43:44.602Z,9.20
2023-04-13T06:46:12.470Z,9.90
2023-04-13T06:48:39.032Z,9.93
2023-04-13T06:51:06.039Z,9.64
2023-04-13T06:53:32.720Z,10.08
2023-04-13T06:55:59.363Z,10.13
2023-04-13T06:58:26.015Z,10.26
2023-04-13T07:00:52.609Z,9.92
2023-04-13T07:03:19.298Z,10.01
2023-04-13T07:05:46.448Z,10.30
2023-04-13T07:08:13.498Z,10.40
2023-04-13T07:10:41.209Z,10.09
2023-04-13T07:13:07.987Z,9.76
2023-04-13T07:15:37.887Z,10.27
2023-04-13T07:18:04.988Z,10.18
2023-04-13T07:20:31.811Z,9.95
2023-04-13T07:22:58.369Z,10.18
2023-04-13T07:25:25.034Z,10.40
2023-04-13T07:27:51.590Z,10.70
2023-04-13T07:30:18.192Z,10.45
2023-04-13T07:32:44.929Z,11.07
2023-04-13T07:35:11.937Z,10.58
2023-04-13T07:37:38.673Z,11.00
2023-04-13T07:40:07.050Z,10.97
2023-04-13T07:42:33.806Z,10.94
2023-04-13T07:45:00.614Z,11.41
2023-04-13T07:47:27.418Z,11.33
2023-04-13T07:49:54.436Z,11.27
2023-04-13T07:52:21.371Z,10.49
2023-04-13T07:54:48.318Z,10.77
2023-04-13T07:57:15.154Z,11.05
2023-04-13T07:59:41.836Z,11.06
2023-04-13T08:02:08.445Z,11.25
2023-04-13T08:04:36.158Z,11.23
2023-04-13T08:07:06.158Z,11.37
2023-04-13T08:09:36.642Z,11.81
2023-04-13T08:12:03.970Z,11.38
2023-04-13T08:14:31.113Z,12.17
2023-04-13T08:16:57.958Z,12.04
2023-04-13T08:19:25.508Z,11.61
2023-04-13T08:21:52.732Z,11.92
2023-04-13T08:24:21.157Z,12.36
2023-04-13T08:26:47.782Z,12.50
2023-04-13T08:29:14.620Z,12.62
2023-04-13T08:31:41.223Z,12.35
2023-04-13T08:34:10.582Z,13.20
2023-04-13T08:36:38.021Z,12.75
2023-04-13T08:39:06.005Z,13.02
2023-04-13T08:41:35.683Z,12.64
2023-04-13T08:44:06.897Z,13.02
2023-04-13T08:46:36.984Z,12.36
2023-04-13T08:49:04.092Z,12.05
2023-04-13T08:51:32.285Z,11.98
2023-04-13T08:53:59.535Z,11.62
2023-04-13T08:56:41.920Z,12.08
2023-04-13T08:59:09.902Z,12.82
2023-04-13T09:01:37.871Z,12.59
2023-04-13T09:04:10.692Z,12.67
2023-04-13T09:06:41.480Z,12.80
2023-04-13T09:09:15.577Z,12.85
2023-04-13T09:11:43.718Z,12.37
2023-04-13T09:14:10.466Z,12.94
2023-04-13T09:16:41.724Z,13.17
2023-04-13T09:19:08.974Z,12.48
2023-04-13T09:21:40.603Z,12.52
2023-04-13T09:24:08.354Z,12.84
2023-04-13T09:26:48.779Z,12.59
2023-04-13T09:29:20.545Z,13.10
2023-04-13T09:31:47.815Z,13.07
2023-04-13T09:34:25.520Z,13.24
2023-04-13T09:36:54.541Z,13.09
2023-04-13T09:39:29.257Z,12.63
2023-04-13T09:41:56.279Z,13.89
2023-04-13T09:44:28.692Z,13.29
2023-04-13T09:47:03.094Z,13.54
2023-04-13T09:49:43.336Z,12.77
2023-04-13T09:52:20.671Z,13.45
2023-04-13T09:54:51.654Z,13.57
2023-04-13T09:57:33.506Z,14.16
2023-04-13T10:00:07.532Z,13.53
2023-04-13T10:02:34.363Z,13.19
2023-04-13T10:05:01.832Z,13.62
2023-04-13T10:07:30.809Z,13.68
2023-04-13T10:09:57.436Z,14.50
2023-04-13T10:12:26.944Z,14.43
2023-04-13T10:15:06.665Z,13.69
2023-04-13T10:17:53.986Z,14.02
2023-04-13T10:20:21.733Z,13.88
2023-04-13T10:22:51.198Z,14.03
2023-04-13T10:25:31.933Z,14.16
2023-04-13T10:28:00.802Z,14.11
2023-04-13T10:30:27.886Z,14.21
2023-04-13T10:33:05.887Z,13.56
2023-04-13T10:35:37.186Z,13.73
2023-04-13T10:38:04.593Z,13.83
2023-04-13T10:40:42.715Z,13.72
2023-04-13T10:43:09.513Z,13.51
2023-04-13T10:45:37.969Z,13.99
2023-04-13T10:48:04.822Z,13.46
2023-04-13T10:50:31.723Z,14.98
2023-04-13T10:53:06.952Z,15.18
2023-04-13T10:55:35.310Z,14.78
2023-04-13T10:58:03.461Z,15.18
2023-04-13T11:00:45.654Z,15.09
2023-04-13T11:03:17.841Z,15.80
2023-04-13T11:05:47.347Z,18.92
2023-04-13T11:08:21.948Z,19.90
2023-04-13T11:10:52.867Z,17.81
2023-04-13T11:13:19.641Z,16.32
2023-04-13T11:15:49.415Z,15.96
2023-04-13T11:18:25.819Z,15.60
2023-04-13T11:20:52.620Z,18.41
2023-04-13T11:23:20.240Z,17.91
2023-04-13T11:26:01.679Z,20.79
2023-04-13T11:28:40.446Z,19.45
2023-04-13T11:31:07.847Z,20.92
2023-04-13T11:33:38.582Z,19.52
2023-04-13T11:36:07.538Z,19.88
2023-04-13T11:38:34.181Z,21.09
2023-04-13T11:41:15.723Z,18.63
2023-04-13T11:43:46.599Z,18.17
2023-04-13T11:46:15.878Z,19.73
2023-04-13T11:48:43.687Z,18.74
2023-04-13T11:51:11.586Z,18.70
2023-04-13T11:53:39.728Z,18.03
2023-04-13T11:56:07.089Z,17.91
2023-04-13T11:58:33.858Z,18.35
2023-04-13T12:01:13.324Z,17.25
2023-04-13T12:03:56.970Z,17.42
2023-04-13T12:06:30.028Z,20.14
2023-04-13T12:09:09.123Z,19.73
2023-04-13T12:11:42.208Z,18.78
2023-04-13T12:14:52.075Z,20.73
2023-04-13T12:17:38.375Z,18.11
2023-04-13T12:20:07.282Z,19.78
2023-04-13T12:22:57.704Z,19.53
2023-04-13T12:27:59.508Z,20.09
2023-04-13T12:30:27.322Z,18.84
2023-04-13T12:32:55.787Z,17.44
2023-04-13T12:35:22.741Z,19.15
2023-04-13T12:37:50.468Z,20.16
2023-04-13T12:40:18.737Z,20.97
2023-04-13T12:42:46.823Z,20.49
2023-04-13T12:45:14.487Z,20.19
2023-04-13T12:47:41.844Z,18.96
2023-04-13T12:50:10.708Z,18.85
2023-04-13T12:52:41.075Z,19.42
2023-04-13T12:55:08.587Z,19.07
2023-04-13T12:57:35.487Z,18.49
2023-04-13T13:00:02.118Z,18.32
2023-04-13T13:02:31.197Z,18.17
2023-04-13T13:04:59.279Z,19.57
2023-04-13T13:07:27.704Z,18.25
2023-04-13T13:09:54.259Z,17.93
2023-04-13T13:12:20.868Z,18.02
2023-04-13T13:14:47.543Z,18.14
2023-04-13T13:17:14.190Z,16.75
2023-04-13T13:19:40.785Z,18.26
2023-04-13T13:22:07.414Z,16.75
2023-04-13T13:24:34.284Z,17.35
2023-04-13T13:27:30.410Z,19.47
2023-04-13T13:29:47.533Z,21.26
2023-04-13T13:32:14.560Z,21.57
2023-04-13T13:34:41.855Z,19.83
2023-04-13T13:37:09.101Z,19.81
2023-04-13T13:39:37.474Z,23.01
2023-04-13T13:42:04.605Z,22.91
2023-04-13T13:44:31.341Z,20.77
2023-04-13T13:46:58.063Z,20.10
2023-04-13T13:49:25.466Z,19.38
2023-04-13T13:51:52.459Z,21.26
2023-04-13T13:54:20.459Z,21.25
2023-04-13T13:56:47.182Z,19.50
2023-04-13T13:59:13.777Z,19.82
2023-04-13T14:01:41.133Z,19.56
2023-04-13T14:04:08.156Z,16.80
2023-04-13T14:06:35.187Z,16.17
2023-04-13T14:09:02.266Z,16.64
2023-04-13T14:11:29.830Z,16.22
2023-04-13T14:13:56.647Z,16.53
2023-04-13T14:16:23.805Z,15.39
2023-04-13T14:18:50.698Z,15.28
2023-04-13T14:21:21.620Z,15.65
2023-04-13T14:23:49.850Z,15.13
2023-04-13T14:26:16.752Z,15.01
2023-04-13T14:28:44.467Z,14.04
2023-04-13T14:31:11.317Z,14.16
2023-04-13T14:33:38.181Z,13.95
2023-04-13T14:36:05.022Z,13.88
2023-04-13T14:38:32.237Z,15.01
2023-04-13T14:40:58.979Z,16.23
2023-04-13T14:43:25.574Z,18.19
2023-04-13T14:45:58.166Z,20.70
2023-04-13T14:48:24.840Z,21.29
2023-04-13T14:50:52.966Z,21.26
2023-04-13T14:53:19.688Z,24.22
2023-04-13T14:55:46.287Z,25.69
2023-04-13T14:58:13.107Z,24.30
2023-04-13T15:00:39.946Z,20.92
2023-04-13T15:03:08.625Z,20.12
2023-04-13T15:05:45.564Z,20.95
2023-04-13T15:08:14.364Z,24.43
2023-04-13T15:10:41.464Z,26.40
2023-04-13T15:13:08.567Z,27.06
2023-04-13T15:15:36.846Z,27.72
2023-04-13T15:18:04.707Z,26.47
2023-04-13T15:20:31.747Z,27.42
2023-04-13T15:22:59.181Z,28.28
2023-04-13T15:25:27.193Z,28.88
2023-04-13T15:27:56.017Z,25.82
2023-04-13T15:30:28.138Z,27.90
2023-04-13T15:33:05.011Z,28.78
2023-04-13T15:35:34.690Z,28.91
2023-04-13T15:38:03.578Z,26.44
2023-04-13T15:40:34.986Z,25.58
2023-04-13T15:43:02.191Z,23.63
2023-04-13T15:45:28.847Z,21.72
2023-04-13T15:47:55.464Z,20.54
2023-04-13T15:50:22.308Z,22.31
2023-04-13T15:52:48.866Z,22.31
2023-04-13T15:55:15.485Z,20.12
2023-04-13T15:57:42.088Z,19.20
2023-04-13T16:00:09.416Z,18.36
2023-04-13T16:02:37.532Z,17.56
2023-04-13T16:05:04.588Z,18.64
2023-04-13T16:07:31.544Z,19.92
2023-04-13T16:09:58.502Z,21.41
2023-04-13T16:12:32.122Z,22.70
2023-04-13T16:14:59.772Z,20.43
2023-04-13T16:17:33.456Z,19.15
2023-04-13T16:20:19.613Z,18.16
2023-04-13T16:22:49.851Z,17.04
2023-04-13T16:25:17.939Z,16.72
2023-04-13T16:27:46.048Z,16.90
2023-04-13T16:30:13.547Z,16.60
2023-04-13T16:32:44.958Z,16.63
2023-04-13T16:35:12.513Z,16.24
2023-04-13T16:37:42.899Z,15.69
2023-04-13T16:40:11.189Z,15.31
2023-04-13T16:42:41.200Z,15.27
2023-04-13T16:45:11.392Z,15.35
2023-04-13T16:47:39.021Z,14.72
2023-04-13T16:50:07.364Z,13.55
2023-04-13T16:52:34.849Z,12.83
2023-04-13T16:55:02.695Z,12.66
2023-04-13T16:57:29.417Z,12.43
2023-04-13T17:00:00.008Z,11.89
2023-04-13T17:02:31.497Z,12.08
2023-04-13T17:04:59.017Z,11.88
2023-04-13T17:07:28.244Z,11.36
2023-04-13T17:09:57.770Z,11.11
2023-04-13T17:12:25.141Z,10.92
2023-04-13T17:14:51.778Z,11.47
2023-04-13T17:17:18.386Z,11.68
2023-04-13T17:19:45.074Z,12.53
2023-04-13T17:22:11.979Z,12.60
2023-04-13T17:24:38.888Z,12.80
2023-04-13T17:27:06.509Z,13.09
2023-04-13T17:29:36.446Z,13.11
2023-04-13T17:32:03.082Z,13.10
2023-04-13T17:34:29.765Z,13.03
2023-04-13T17:36:57.903Z,12.90
2023-04-13T17:39:24.682Z,12.62
2023-04-13T17:41:51.354Z,12.72
2023-04-13T17:44:17.923Z,12.52
2023-04-13T17:46:45.898Z,11.91
2023-04-13T17:49:14.536Z,12.06
2023-04-13T17:51:44.824Z,11.97
2023-04-13T17:54:12.531Z,12.06
2023-04-13T17:56:39.386Z,10.86
2023-04-13T17:59:05.996Z,11.74
2023-04-13T18:01:32.550Z,11.76
2023-04-13T18:04:00.063Z,11.71
2023-04-13T18:06:27.470Z,11.71
2023-04-13T18:08:54.097Z,11.71
2023-04-13T18:11:20.694Z,11.62
2023-04-13T18:13:47.235Z,11.55
2023-04-13T18:16:14.438Z,11.42
2023-04-13T18:18:41.200Z,11.51
2023-04-13T18:21:08.391Z,11.51
2023-04-13T18:23:35.125Z,11.50
2023-04-13T18:26:02.087Z,10.99
2023-04-13T18:28:29.834Z,11.32
2023-04-13T18:31:02.106Z,10.96
2023-04-13T18:33:29.503Z,10.82
2023-04-13T18:35:56.244Z,11.18
2023-04-13T18:38:25.547Z,11.08
2023-04-13T18:40:52.237Z,11.11
2023-04-13T18:43:19.637Z,11.05
2023-04-13T18:45:46.277Z,11.16
2023-04-13T18:48:12.914Z,10.78
2023-04-13T18:50:39.562Z,11.28
2023-04-13T18:53:06.225Z,11.30
2023-04-13T18:55:32.923Z,11.34
2023-04-13T18:57:59.513Z,11.15
2023-04-13T19:00:26.185Z,11.68
2023-04-13T19:02:53.122Z,11.46
2023-04-13T19:05:20.573Z,10.96
2023-04-13T19:07:58.911Z,11.64
2023-04-13T19:10:28.281Z,11.39
2023-04-13T19:12:56.453Z,11.50
2023-04-13T19:15:24.246Z,11.61
2023-04-13T19:17:52.284Z,11.26
2023-04-13T19:20:22.197Z,11.74
2023-04-13T19:22:48.848Z,11.73
2023-04-13T19:25:15.751Z,11.79
2023-04-13T19:27:46.740Z,11.78
2023-04-13T19:30:15.060Z,11.74
2023-04-13T19:32:44.373Z,11.38
2023-04-13T19:35:12.952Z,11.45
2023-04-13T19:37:40.193Z,11.78
2023-04-13T19:40:12.638Z,11.77
2023-04-13T19:42:43.769Z,11.76
2023-04-13T19:45:11.232Z,11.78
2023-04-13T19:47:38.677Z,11.64
2023-04-13T19:50:07.390Z,11.75
2023-04-13T19:52:34.195Z,11.37
2023-04-13T19:55:00.795Z,11.74
2023-04-13T19:57:28.659Z,11.63
2023-04-13T19:59:55.405Z,11.62
2023-04-13T20:02:22.272Z,11.71
2023-04-13T20:04:53.391Z,11.38
2023-04-13T20:07:20.709Z,10.87
2023-04-13T20:09:49.127Z,11.32
2023-04-13T20:12:16.546Z,11.16
2023-04-13T20:14:45.765Z,10.65
2023-04-13T20:17:13.126Z,10.87
2023-04-13T20:19:39.705Z,11.05
2023-04-13T20:22:07.238Z,10.79
2023-04-13T20:24:33.870Z,11.08
2023-04-13T20:27:00.632Z,11.10
2023-04-13T20:29:27.738Z,11.20
2023-04-13T20:31:54.878Z,11.14
2023-04-13T20:34:22.245Z,11.27
2023-04-13T20:36:49.131Z,11.19
2023-04-13T20:39:18.618Z,10.96
2023-04-13T20:41:55.288Z,10.81
2023-04-13T20:44:25.952Z,10.38
2023-04-13T20:46:56.312Z,10.71
2023-04-13T20:49:24.306Z,10.49
2023-04-13T20:51:56.156Z,10.50
2023-04-13T20:54:23.518Z,10.33
2023-04-13T20:56:50.349Z,10.61
2023-04-13T20:59:18.613Z,10.34
2023-04-13T21:01:45.933Z,9.02
2023-04-13T21:04:12.827Z,10.39
2023-04-13T21:06:40.710Z,10.31
2023-04-13T21:09:08.656Z,10.20
2023-04-13T21:11:35.603Z,9.97
2023-04-13T21:14:02.738Z,9.98
2023-04-13T21:16:29.598Z,9.89
2023-04-13T21:18:57.199Z,9.83
2023-04-13T21:21:25.115Z,9.75
2023-04-13T21:23:53.397Z,9.85
2023-04-13T21:26:20.874Z,9.98
2023-04-13T21:28:47.709Z,9.94
2023-04-13T21:31:14.409Z,9.89
2023-04-13T21:33:41.159Z,9.85
2023-04-13T21:38:41.641Z,9.79
2023-04-13T21:41:18.900Z,9.72
2023-04-13T21:43:46.390Z,9.74
2023-04-13T21:46:14.012Z,9.63
2023-04-13T21:48:41.295Z,9.69
2023-04-13T21:51:09.415Z,9.68
2023-04-13T21:53:36.346Z,9.69
2023-04-13T21:56:03.266Z,9.67
2023-04-13T21:58:38.547Z,9.63
2023-04-13T22:01:05.548Z,9.50
2023-04-13T22:03:35.357Z,9.53
2023-04-13T22:06:02.538Z,9.56
2023-04-13T22:08:29.355Z,9.63
2023-04-13T22:10:55.995Z,9.52
2023-04-13T22:13:22.526Z,9.42
2023-04-13T22:15:49.275Z,9.43
2023-04-13T22:18:16.109Z,9.40
2023-04-13T22:20:42.737Z,9.31
2023-04-13T22:23:10.088Z,9.40
2023-04-13T22:25:36.942Z,9.38
2023-04-13T22:28:03.925Z,9.35
2023-04-13T22:30:30.568Z,9.35
2023-04-13T22:32:57.255Z,9.20
2023-04-13T22:35:24.912Z,9.16
2023-04-13T22:37:51.564Z,9.28
2023-04-13T22:40:18.357Z,9.30
2023-04-13T22:42:44.982Z,9.22
2023-04-13T22:45:11.768Z,8.96
2023-04-13T22:47:38.567Z,8.99
2023-04-13T22:50:05.708Z,9.20
2023-04-13T22:52:32.294Z,9.18
2023-04-13T22:54:58.996Z,9.22
2023-04-13T22:57:25.920Z,9.28
2023-04-13T22:59:52.487Z,9.24
2023-04-13T23:02:19.114Z,9.14
2023-04-13T23:04:46.138Z,9.19
2023-04-13T23:07:12.819Z,9.25
2023-04-13T23:09:39.444Z,9.24
2023-04-13T23:12:06.536Z,9.22
2023-04-13T23:14:33.093Z,9.14
2023-04-13T23:16:59.785Z,8.85
2023-04-13T23:19:26.360Z,9.15
2023-04-13T23:21:52.938Z,9.14
2023-04-13T23:24:19.547Z,9.22
2023-04-13T23:26:46.315Z,9.26
2023-04-13T23:29:12.922Z,9.28
2023-04-13T23:31:39.565Z,9.09
2023-04-13T23:34:06.224Z,9.04
2023-04-13T23:36:33.904Z,8.94
2023-04-13T23:39:00.803Z,8.83
2023-04-13T23:41:27.504Z,8.80
2023-04-13T23:43:54.143Z,8.76
2023-04-13T23:46:22.746Z,8.61
2023-04-13T23:48:49.405Z,8.35
2023-04-13T23:51:16.002Z,8.50
2023-04-13T23:53:42.603Z,8.57
2023-04-13T23:56:09.245Z,8.57
2023-04-13T23:58:35.951Z,8.61
